Time;durP1;ratioP1;P1;durP2;ratioP2;P2;SDS_P1;SDS_P2;PMS_P1;PMS_P2;Temp;Humidity;BMP_temperature;BMP_pressure;BME280_temperature;BME280_humidity;BME280_pressure;Samples;Min_cycle;Max_cycle;Signal;HPM_P1;HPM_P2
2021/12/30 00:01:24;;;;;;;14.60;4.45;;;;;;;18.48;46.31;101354.50;4180097;28;20045;-48
2021/12/30 00:03:26;;;;;;;15.05;4.13;;;;;;;18.47;46.54;101343.69;4180085;28;20079;-46
2021/12/30 00:05:28;;;;;;;14.90;4.10;;;;;;;18.43;46.19;101345.28;4179610;28;20033;-47
2021/12/30 00:07:30;;;;;;;9.48;4.40;;;;;;;18.54;45.96;101363.72;4179694;28;20075;-51
2021/12/30 00:09:31;;;;;;;11.43;4.22;;;;;;;18.58;45.90;101345.50;4180437;28;20028;-47
2021/12/30 00:11:35;;;;;;;9.60;3.95;;;;;;;18.63;45.88;101351.09;4180220;28;20045;-47
2021/12/30 00:13:39;;;;;;;17.50;4.75;;;;;;;18.60;45.79;101335.00;4180425;28;20346;-47
2021/12/30 00:15:40;;;;;;;11.63;4.35;;;;;;;18.69;45.69;101355.69;4180578;28;20087;-52
2021/12/30 00:17:42;;;;;;;16.08;4.95;;;;;;;18.70;46.08;101357.34;4179709;28;20045;-46
2021/12/30 00:19:43;;;;;;;13.48;4.45;;;;;;;18.74;46.10;101354.91;4171616;28;20103;-50
2021/12/30 00:21:45;;;;;;;13.95;4.75;;;;;;;18.70;46.14;101337.94;4179449;28;20562;-48
2021/12/30 00:23:47;;;;;;;9.70;4.10;;;;;;;18.76;45.97;101334.13;4179033;28;20102;-47
2021/12/30 00:25:49;;;;;;;12.30;4.07;;;;;;;18.81;45.71;101343.63;4179291;28;20091;-46
2021/12/30 00:27:50;;;;;;;10.77;4.32;;;;;;;18.81;45.67;101355.53;4179770;28;20108;-46
2021/12/30 00:29:51;;;;;;;9.63;3.92;;;;;;;18.81;45.71;101369.41;4179650;28;20546;-51
2021/12/30 00:31:53;;;;;;;9.73;4.25;;;;;;;18.85;45.45;101369.75;4180081;28;20075;-47
2021/12/30 00:33:54;;;;;;;12.63;4.50;;;;;;;18.85;45.31;101361.41;4179986;28;20045;-47
2021/12/30 00:35:56;;;;;;;12.45;4.53;;;;;;;18.86;45.60;101354.78;4179978;28;20099;-46
2021/12/30 00:37:58;;;;;;;10.82;4.13;;;;;;;18.87;45.72;101350.91;4179547;28;20041;-46
2021/12/30 00:39:59;;;;;;;9.43;4.57;;;;;;;18.87;45.79;101356.44;4178814;28;20041;-49
2021/12/30 00:42:00;;;;;;;12.88;4.65;;;;;;;18.90;45.77;101355.94;4164676;28;20547;-48
2021/12/30 00:44:02;;;;;;;9.10;4.32;;;;;;;18.89;45.54;101359.81;4165910;28;20025;-49
2021/12/30 00:46:06;;;;;;;7.53;4.05;;;;;;;18.91;45.66;101377.03;4172707;28;20079;-49
2021/12/30 00:48:08;;;;;;;7.85;4.13;;;;;;;18.92;45.71;101385.09;4177462;28;20431;-48
2021/12/30 00:50:09;;;;;;;8.80;4.15;;;;;;;18.94;45.54;101391.22;4182268;28;20037;-46
2021/12/30 00:52:11;;;;;;;11.35;4.60;;;;;;;18.96;45.59;101393.72;4182335;28;20103;-46
2021/12/30 00:54:12;;;;;;;9.40;4.78;;;;;;;18.95;45.46;101387.34;4183082;28;20091;-49
2021/12/30 00:56:14;;;;;;;9.07;4.20;;;;;;;18.96;45.25;101394.56;4181988;28;20053;-51
2021/12/30 00:58:15;;;;;;;10.35;4.75;;;;;;;18.97;45.43;101393.50;4177044;28;20049;-48
2021/12/30 01:00:19;;;;;;;8.23;4.43;;;;;;;19.00;45.55;101397.66;4182016;28;20100;-47
2021/12/30 01:02:20;;;;;;;10.95;4.90;;;;;;;18.96;45.32;101404.81;4180337;28;20025;-49
2021/12/30 01:04:22;;;;;;;10.98;4.80;;;;;;;19.01;45.09;101418.75;4169033;28;20107;-47
2021/12/30 01:06:23;;;;;;;8.55;4.28;;;;;;;19.03;45.11;101422.13;4180571;28;20049;-48
2021/12/30 01:08:25;;;;;;;8.93;4.25;;;;;;;19.03;45.34;101411.88;4174888;28;20049;-45
2021/12/30 01:10:26;;;;;;;21.08;5.32;;;;;;;19.05;45.22;101404.13;4169947;28;20481;-47
2021/12/30 01:12:29;;;;;;;7.95;4.57;;;;;;;19.06;45.45;101399.44;4170413;28;20040;-48
2021/12/30 01:14:32;;;;;;;11.30;4.40;;;;;;;19.08;45.20;101410.25;4182537;28;20519;-49
2021/12/30 01:16:41;;;;;;;7.05;4.15;;;;;;;19.10;45.28;101410.81;4181132;28;20037;-50
2021/12/30 01:20:58;;;;;;;14.40;4.60;;;;;;;19.12;45.37;101383.69;4181119;28;20025;-47
2021/12/30 01:22:59;;;;;;;7.47;4.05;;;;;;;19.14;45.19;101389.81;4181821;28;20290;-47
2021/12/30 01:25:01;;;;;;;6.95;4.35;;;;;;;19.15;45.39;101395.13;4182904;28;20082;-48
2021/12/30 01:27:03;;;;;;;9.88;4.65;;;;;;;19.15;45.36;101386.78;4183021;28;20055;-49
2021/12/30 01:29:04;;;;;;;9.95;4.05;;;;;;;19.16;45.24;101388.47;4181208;28;20558;-49
2021/12/30 01:31:06;;;;;;;7.82;4.30;;;;;;;19.17;45.48;101389.28;4181909;28;20037;-53
2021/12/30 01:33:07;;;;;;;9.65;4.45;;;;;;;19.16;45.18;101394.00;4182490;28;20029;-48
2021/12/30 01:35:12;;;;;;;6.57;4.22;;;;;;;19.18;45.08;101397.34;4182082;28;20442;-47
2021/12/30 01:37:18;;;;;;;7.03;4.50;;;;;;;19.20;44.91;101388.78;4181944;28;20053;-48
2021/12/30 01:39:21;;;;;;;9.20;4.32;;;;;;;19.22;44.79;101381.03;4182286;28;20087;-46
2021/12/30 01:41:23;;;;;;;7.15;4.75;;;;;;;19.18;45.01;101375.16;4181907;28;20091;-45
2021/12/30 01:43:24;;;;;;;9.27;4.43;;;;;;;19.22;44.88;101373.53;4180652;28;20045;-50
2021/12/30 01:45:27;;;;;;;7.30;4.47;;;;;;;19.23;44.96;101375.22;4182274;28;20091;-46
2021/12/30 01:47:28;;;;;;;7.95;4.35;;;;;;;19.24;44.80;101368.59;4182248;28;20041;-47
2021/12/30 01:49:30;;;;;;;14.90;4.72;;;;;;;19.24;44.76;101379.69;4181704;28;20037;-49
2021/12/30 01:51:31;;;;;;;8.43;4.53;;;;;;;19.24;44.71;101385.25;4181428;28;20106;-48
2021/12/30 01:53:33;;;;;;;9.65;4.30;;;;;;;19.26;44.84;101387.75;4181286;28;20403;-49
2021/12/30 01:55:36;;;;;;;5.85;3.70;;;;;;;19.27;44.75;101390.25;4182052;28;20048;-47
2021/12/30 01:57:38;;;;;;;8.32;4.40;;;;;;;19.28;45.00;101380.00;4180619;28;20090;-50
2021/12/30 01:59:40;;;;;;;9.95;3.85;;;;;;;19.29;44.77;101376.97;4182388;28;20469;-49
2021/12/30 02:01:41;;;;;;;11.00;4.75;;;;;;;19.30;44.93;101392.53;4182023;28;20032;-47
2021/12/30 02:03:42;;;;;;;5.95;4.05;;;;;;;19.30;44.72;101389.75;4177194;28;20033;-47
2021/12/30 02:05:44;;;;;;;8.43;3.97;;;;;;;19.29;44.75;101390.00;4174828;28;20037;-48
2021/12/30 02:07:45;;;;;;;11.13;4.57;;;;;;;19.30;44.89;101411.94;4177186;28;20024;-50
2021/12/30 02:09:47;;;;;;;8.68;4.40;;;;;;;19.33;44.86;101443.03;4173510;28;20538;-47
2021/12/30 02:11:49;;;;;;;6.90;3.88;;;;;;;19.29;44.81;101435.25;4179679;28;20028;-48
2021/12/30 02:13:52;;;;;;;8.10;4.13;;;;;;;19.35;44.51;101454.72;4170596;28;20557;-47
2021/12/30 02:16:00;;;;;;;8.70;4.05;;;;;;;19.36;44.88;101448.09;4176746;28;20033;-48
2021/12/30 02:18:03;;;;;;;9.23;4.20;;;;;;;19.36;44.61;101437.81;4165029;28;20103;-50
2021/12/30 02:20:09;;;;;;;6.25;4.20;;;;;;;19.37;44.64;101425.59;4168508;28;20038;-49
2021/12/30 02:22:13;;;;;;;8.32;3.63;;;;;;;19.37;44.95;101406.19;4166587;28;20045;-48
2021/12/30 02:24:14;;;;;;;6.40;3.85;;;;;;;19.39;44.86;101376.25;4170402;28;20045;-46
2021/12/30 02:26:18;;;;;;;6.40;4.00;;;;;;;19.34;44.57;101345.66;4171964;28;20098;-46
2021/12/30 02:28:23;;;;;;;10.52;3.80;;;;;;;19.39;44.79;101331.84;4177385;28;20480;-48
2021/12/30 02:30:24;;;;;;;;;;;;;;;19.40;45.00;101327.13;4176523;28;20217;-47
2021/12/30 02:32:26;;;;;;;9.07;4.50;;;;;;;19.46;44.83;101317.75;4179581;28;19923;-49
2021/12/30 02:34:27;;;;;;;5.50;3.72;;;;;;;19.47;44.74;101311.09;4172924;28;20032;-47
2021/12/30 02:36:34;;;;;;;5.82;3.95;;;;;;;19.46;44.72;101292.78;4165484;28;20080;-51
2021/12/30 02:38:36;;;;;;;7.25;4.20;;;;;;;19.46;44.71;101304.72;4164568;28;20115;-51
2021/12/30 02:40:49;;;;;;;7.97;4.63;;;;;;;19.44;44.65;101306.09;4179685;28;20087;-46
2021/12/30 02:42:50;;;;;;;9.15;4.10;;;;;;;19.45;44.58;101313.31;4181217;28;20427;-50
2021/12/30 02:44:52;;;;;;;9.18;4.25;;;;;;;19.45;44.90;101318.84;4174753;28;20060;-48
2021/12/30 02:46:54;;;;;;;8.35;4.55;;;;;;;19.46;44.62;101320.53;4166099;28;20041;-47
2021/12/30 02:48:56;;;;;;;9.50;4.63;;;;;;;19.46;44.69;101320.53;4167364;28;20092;-51
2021/12/30 02:51:02;;;;;;;8.75;4.93;;;;;;;19.46;44.55;101337.19;4172553;28;20020;-46
2021/12/30 02:53:03;;;;;;;;;;;;;;;19.46;44.81;101349.13;4175944;28;20480;-46
2021/12/30 02:55:05;;;;;;;6.75;4.47;;;;;;;19.52;44.37;101361.13;4169971;28;20384;-48
2021/12/30 02:57:06;;;;;;;9.20;4.55;;;;;;;19.52;44.73;101366.69;4172728;28;20423;-50
2021/12/30 02:59:07;;;;;;;8.55;4.30;;;;;;;19.52;44.39;101380.56;4172560;28;20033;-49
2021/12/30 03:01:15;;;;;;;6.13;4.07;;;;;;;19.48;44.57;101362.75;4180817;28;20102;-49
2021/12/30 03:03:26;;;;;;;7.22;4.43;;;;;;;19.47;44.39;101349.94;4174759;28;20037;-53
2021/12/30 03:05:28;;;;;;;5.38;3.70;;;;;;;19.50;44.74;101361.38;4173714;28;20142;-47
2021/12/30 03:07:29;;;;;;;10.23;4.00;;;;;;;19.50;44.42;101357.75;4178658;28;20087;-49
2021/12/30 03:09:34;;;;;;;7.28;4.82;;;;;;;19.50;44.39;101364.16;4177496;28;20099;-51
2021/12/30 03:11:36;;;;;;;6.25;3.88;;;;;;;19.44;44.72;101344.94;4180578;28;20041;-46
2021/12/30 03:13:42;;;;;;;8.45;4.20;;;;;;;19.48;44.63;101326.66;4169034;28;20045;-49
2021/12/30 03:15:46;;;;;;;7.82;3.80;;;;;;;19.46;44.74;101309.41;4164748;28;20531;-49
2021/12/30 03:17:48;;;;;;;5.97;3.70;;;;;;;19.50;44.55;101305.03;4171463;28;20037;-47
2021/12/30 03:19:56;;;;;;;6.88;3.88;;;;;;;19.49;44.39;101295.88;4176058;28;20029;-51
2021/12/30 03:21:58;;;;;;;6.38;3.42;;;;;;;19.52;44.65;101291.75;4179067;28;20032;-48
2021/12/30 03:24:01;;;;;;;5.18;3.75;;;;;;;19.51;44.35;101293.66;4173008;28;20042;-50
2021/12/30 03:26:04;;;;;;;5.43;4.05;;;;;;;19.51;44.53;101307.53;4170728;28;20049;-46
2021/12/30 03:28:06;;;;;;;6.07;4.22;;;;;;;19.50;44.23;101328.06;4170381;28;20197;-49
2021/12/30 03:30:11;;;;;;;6.07;4.30;;;;;;;19.51;44.56;101331.69;4175531;28;20082;-49
2021/12/30 03:32:12;;;;;;;5.10;3.63;;;;;;;19.53;44.17;101335.03;4180207;28;20427;-51
2021/12/30 03:34:14;;;;;;;7.43;4.70;;;;;;;19.51;44.21;101340.00;4160192;28;20528;-49
2021/12/30 03:36:16;;;;;;;9.43;3.92;;;;;;;19.52;44.50;101336.16;4166274;28;20493;-49
2021/12/30 03:38:17;;;;;;;6.40;4.35;;;;;;;19.53;44.29;101326.72;4174253;28;20553;-45
2021/12/30 03:40:21;;;;;;;6.18;3.67;;;;;;;19.53;44.28;101335.03;4174298;28;20099;-48
2021/12/30 03:42:23;;;;;;;4.45;3.70;;;;;;;19.52;44.23;101337.00;4172836;28;20045;-48
2021/12/30 03:44:24;;;;;;;6.53;3.67;;;;;;;19.53;44.36;101348.94;4180115;28;20083;-48
2021/12/30 03:46:28;;;;;;;6.43;4.15;;;;;;;19.54;44.16;101339.50;4175059;28;20095;-46
2021/12/30 03:48:34;;;;;;;5.60;3.72;;;;;;;19.55;44.18;101349.47;4171186;28;20106;-49
2021/12/30 03:50:42;;;;;;;7.05;3.67;;;;;;;19.48;44.37;101358.03;4176789;28;20041;-48
2021/12/30 03:52:44;;;;;;;6.60;4.07;;;;;;;19.55;44.42;101363.38;4167368;28;20033;-47
2021/12/30 03:54:47;;;;;;;7.57;3.75;;;;;;;19.54;44.59;101361.69;4173373;28;20446;-51
2021/12/30 03:56:48;;;;;;;6.85;4.10;;;;;;;19.54;44.32;101364.47;4177428;28;20090;-48
2021/12/30 03:58:50;;;;;;;6.10;3.67;;;;;;;19.49;44.21;101364.41;4175598;28;20504;-48
2021/12/30 04:00:51;;;;;;;6.07;3.50;;;;;;;19.54;44.14;101383.91;4168440;28;20078;-45
2021/12/30 04:02:53;;;;;;;8.63;5.22;;;;;;;19.53;44.35;101396.13;4169555;28;20061;-47
2021/12/30 04:04:54;;;;;;;8.82;4.30;;;;;;;19.52;44.42;101414.72;4170863;28;20095;-53
2021/12/30 04:06:55;;;;;;;6.90;4.00;;;;;;;19.54;44.59;101400.56;4179781;28;20469;-51
2021/12/30 04:08:58;;;;;;;7.57;3.80;;;;;;;19.51;44.30;101370.53;4176548;28;20041;-47
2021/12/30 04:11:00;;;;;;;5.95;3.85;;;;;;;19.50;44.31;101361.38;4179375;28;20090;-47
2021/12/30 04:13:02;;;;;;;6.75;3.28;;;;;;;19.53;44.17;101365.56;4175044;28;20041;-49
2021/12/30 04:15:05;;;;;;;5.68;3.97;;;;;;;19.47;44.53;101349.94;4174929;28;20098;-47
2021/12/30 04:17:06;;;;;;;5.68;3.97;;;;;;;19.52;44.43;101363.91;4176762;28;21472;-47
2021/12/30 04:19:08;;;;;;;4.68;3.88;;;;;;;19.53;44.19;101371.97;4177010;28;20549;-50
2021/12/30 04:21:09;;;;;;;5.00;3.95;;;;;;;19.52;44.20;101380.56;4178809;28;20041;-45
2021/12/30 04:23:11;;;;;;;4.57;3.47;;;;;;;19.53;44.48;101396.13;4177973;28;20099;-48
2021/12/30 04:25:14;;;;;;;7.43;3.80;;;;;;;19.52;44.60;101400.00;4178393;28;20048;-47
2021/12/30 04:27:16;;;;;;;5.38;3.95;;;;;;;19.52;44.25;101402.78;4181908;28;20095;-49
2021/12/30 04:29:18;;;;;;;5.30;3.47;;;;;;;19.52;44.46;101403.59;4181856;28;20045;-45
2021/12/30 04:31:19;;;;;;;7.38;3.50;;;;;;;19.51;44.38;101389.97;4183486;28;20075;-48
2021/12/30 04:33:21;;;;;;;6.45;3.70;;;;;;;19.50;44.30;101378.03;4179527;28;20526;-49
2021/12/30 04:35:22;;;;;;;8.50;3.83;;;;;;;19.52;44.30;101369.47;4170564;28;20139;-49
2021/12/30 04:37:24;;;;;;;5.43;3.72;;;;;;;19.50;44.54;101349.44;4174250;28;20075;-51
2021/12/30 04:39:30;;;;;;;5.53;3.83;;;;;;;19.49;44.61;101339.44;4178950;28;20090;-51
2021/12/30 04:41:32;;;;;;;6.53;3.58;;;;;;;19.51;44.56;101323.34;4174793;28;20562;-49
2021/12/30 04:43:33;;;;;;;6.28;3.72;;;;;;;19.51;44.53;101331.69;4181195;28;20025;-52
2021/12/30 04:45:34;;;;;;;6.72;4.30;;;;;;;19.49;44.51;101325.56;4169446;28;20091;-47
2021/12/30 04:47:38;;;;;;;8.68;3.72;;;;;;;19.49;44.23;101331.94;4166842;28;20092;-46
2021/12/30 04:49:40;;;;;;;5.55;3.80;;;;;;;19.50;44.44;101333.63;4170788;28;20029;-52
2021/12/30 04:51:41;;;;;;;5.95;3.55;;;;;;;19.50;44.29;101332.78;4181356;28;20472;-48
2021/12/30 04:53:43;;;;;;;5.75;3.70;;;;;;;19.50;44.43;101332.78;4182494;28;20041;-48
2021/12/30 04:55:45;;;;;;;6.07;3.50;;;;;;;19.51;44.11;101328.91;4181666;28;20099;-49
2021/12/30 04:57:47;;;;;;;4.85;3.78;;;;;;;19.49;44.51;101317.22;4179067;28;20481;-47
2021/12/30 04:59:48;;;;;;;6.03;4.20;;;;;;;19.49;44.25;101314.47;4177202;28;20030;-47
2021/12/30 05:01:52;;;;;;;4.82;3.65;;;;;;;19.49;43.97;101320.84;4180518;28;20041;-50
2021/12/30 05:03:54;;;;;;;7.80;4.03;;;;;;;19.47;44.23;101311.09;4175457;28;20116;-51
2021/12/30 05:05:56;;;;;;;6.13;3.78;;;;;;;19.49;44.32;101298.63;4175319;28;20095;-50
2021/12/30 05:07:58;;;;;;;6.65;3.88;;;;;;;19.49;44.24;101287.53;4180199;28;20036;-47
2021/12/30 05:09:59;;;;;;;4.60;3.65;;;;;;;19.46;44.53;101293.59;4178889;28;20026;-48
2021/12/30 05:12:00;;;;;;;5.85;3.85;;;;;;;19.49;44.12;101306.13;4178567;28;20429;-47
2021/12/30 05:14:03;;;;;;;5.63;3.50;;;;;;;19.48;44.12;101313.63;4172125;28;20539;-47
2021/12/30 05:16:05;;;;;;;20.40;4.72;;;;;;;19.49;44.68;101317.22;4179392;28;20044;-50
2021/12/30 05:18:10;;;;;;;20.10;5.50;;;;;;;19.47;44.92;101311.97;4171728;28;20091;-52
2021/12/30 05:20:12;;;;;;;19.45;4.55;;;;;;;19.51;44.59;101306.69;4172898;28;20037;-48
2021/12/30 05:22:14;;;;;;;24.48;4.20;;;;;;;19.47;44.57;101308.31;4182823;28;20037;-50
2021/12/30 05:24:15;;;;;;;14.80;4.00;;;;;;;19.57;44.81;101322.31;4181667;28;20098;-51
2021/12/30 05:26:25;;;;;;;15.18;4.00;;;;;;;19.57;44.91;101327.88;4183055;28;20028;-48
2021/12/30 05:28:26;;;;;;;17.15;4.13;;;;;;;19.58;44.60;101329.53;4182643;28;20087;-50
2021/12/30 05:30:28;;;;;;;10.50;4.18;;;;;;;19.55;44.88;101318.94;4180999;28;20053;-51
2021/12/30 05:32:29;;;;;;;11.10;4.15;;;;;;;19.57;44.73;101311.22;4180536;28;20103;-48
2021/12/30 05:34:31;;;;;;;8.60;3.83;;;;;;;19.59;45.08;101311.78;4181432;28;20110;-46
2021/12/30 05:36:32;;;;;;;14.70;4.28;;;;;;;19.58;45.04;101312.88;4182207;28;20549;-56
2021/12/30 05:38:33;;;;;;;14.50;3.90;;;;;;;19.58;44.82;101301.78;4181257;28;20036;-50
2021/12/30 05:40:35;;;;;;;13.20;4.88;;;;;;;19.58;44.70;101301.78;4173919;28;20033;-49
2021/12/30 05:42:37;;;;;;;6.95;3.80;;;;;;;19.58;45.17;101312.06;4182276;28;20037;-47
2021/12/30 05:44:40;;;;;;;13.35;4.18;;;;;;;19.57;44.86;101311.22;4182161;28;20536;-48
2021/12/30 05:46:42;;;;;;;6.57;3.78;;;;;;;19.59;44.79;101302.63;4182185;28;20040;-49
2021/12/30 05:48:43;;;;;;;9.82;4.35;;;;;;;19.58;44.77;101279.56;4180326;28;20079;-45
2021/12/30 05:50:44;;;;;;;9.48;3.95;;;;;;;19.58;44.70;101265.69;4180483;28;20511;-49
2021/12/30 05:52:47;;;;;;;9.18;3.65;;;;;;;19.58;44.92;101257.38;4181538;28;20067;-49
2021/12/30 05:54:48;;;;;;;6.68;4.15;;;;;;;19.55;45.00;101257.88;4182392;28;20082;-47
2021/12/30 05:56:49;;;;;;;18.88;5.53;;;;;;;19.60;44.79;101282.06;4182356;28;20477;-46
2021/12/30 05:59:31;;;;;;;8.05;3.90;;;;;;;19.58;45.08;101304.56;4181832;28;20048;-49
2021/12/30 06:01:45;;;;;;;9.18;3.67;;;;;;;19.60;45.15;101327.34;4178576;28;20102;-48
2021/12/30 06:04:22;;;;;;;9.65;3.58;;;;;;;19.57;45.13;101330.66;4164181;28;20041;-49
2021/12/30 06:07:07;;;;;;;8.93;3.80;;;;;;;19.57;45.06;101350.06;4165789;28;20099;-51
2021/12/30 06:09:51;;;;;;;8.65;3.92;;;;;;;19.62;45.11;101346.56;4144923;28;20497;-49
2021/12/30 06:12:17;;;;;;;7.75;3.60;;;;;;;19.58;45.05;101329.53;4167281;28;20103;-47
2021/12/30 06:14:43;;;;;;;7.80;3.65;;;;;;;19.57;45.04;101322.31;4165232;28;20042;-51
2021/12/30 06:17:46;;;;;;;8.37;4.10;;;;;;;19.58;44.84;101318.44;4160626;28;20043;-48
2021/12/30 06:23:21;;;;;;;4.90;3.60;;;;;;;19.58;45.04;101328.72;4127520;28;20435;-49
2021/12/30 06:25:26;;;;;;;5.50;3.33;;;;;;;19.61;45.27;101323.50;4177886;28;20415;-52
2021/12/30 06:27:27;;;;;;;6.18;3.20;;;;;;;19.58;45.43;101318.44;4181170;28;20094;-49
2021/12/30 06:29:28;;;;;;;5.90;3.58;;;;;;;19.59;45.27;101309.00;4166941;28;20037;-51
2021/12/30 06:31:30;;;;;;;8.70;3.63;;;;;;;19.57;45.85;101305.66;4165316;28;20107;-48
2021/12/30 06:33:31;;;;;;;7.55;4.38;;;;;;;19.56;45.43;101292.84;4174613;28;20049;-48
2021/12/30 06:35:34;;;;;;;4.68;3.83;;;;;;;19.54;45.65;101295.06;4181813;28;20424;-51
2021/12/30 06:37:37;;;;;;;7.78;3.80;;;;;;;19.53;46.05;101302.56;4181137;28;20040;-50
2021/12/30 06:39:39;;;;;;;8.65;3.88;;;;;;;19.53;46.19;101299.78;4181731;28;20510;-49
2021/12/30 06:41:40;;;;;;;4.10;3.20;;;;;;;19.46;46.07;101288.06;4181333;28;20041;-49
2021/12/30 06:43:44;;;;;;;7.70;4.18;;;;;;;19.51;46.02;101301.97;4181368;28;20536;-51
2021/12/30 06:45:45;;;;;;;9.05;3.67;;;;;;;19.47;46.38;101302.75;4181445;28;20082;-47
2021/12/30 06:47:50;;;;;;;5.78;3.78;;;;;;;19.47;46.47;101294.44;4181446;28;20025;-50
2021/12/30 06:49:58;;;;;;;7.97;4.18;;;;;;;19.48;46.45;101285.03;4181804;28;20041;-48
2021/12/30 06:51:59;;;;;;;5.63;3.90;;;;;;;19.50;46.56;101300.31;4181190;28;20036;-51
2021/12/30 06:54:02;;;;;;;5.20;3.30;;;;;;;19.52;46.33;101297.28;4181462;28;20477;-50
2021/12/30 06:56:03;;;;;;;9.43;3.70;;;;;;;19.51;46.02;101284.50;4181304;28;20091;-47
2021/12/30 06:58:05;;;;;;;6.15;3.83;;;;;;;19.51;46.26;101284.50;4180281;28;20376;-48
2021/12/30 07:00:08;;;;;;;5.20;3.95;;;;;;;19.50;46.26;101274.50;4181327;28;20130;-48
2021/12/30 07:02:10;;;;;;;5.60;3.85;;;;;;;19.49;46.03;101259.78;4179660;28;20095;-45
2021/12/30 07:04:11;;;;;;;10.00;3.65;;;;;;;19.48;46.21;101246.19;4181435;28;20045;-46
2021/12/30 07:06:13;;;;;;;5.18;3.85;;;;;;;19.48;46.56;101246.19;4180629;28;20049;-50
2021/12/30 07:08:14;;;;;;;5.47;3.38;;;;;;;19.49;46.28;101242.28;4180747;28;20032;-47
2021/12/30 07:10:16;;;;;;;7.75;3.63;;;;;;;19.49;46.32;101242.28;4179166;28;20082;-47
2021/12/30 07:12:17;;;;;;;5.20;3.15;;;;;;;19.49;46.18;101240.34;4180808;28;20045;-50
2021/12/30 07:14:20;;;;;;;5.38;3.92;;;;;;;19.46;46.26;101226.16;4181299;28;20071;-49
2021/12/30 07:16:22;;;;;;;5.15;3.58;;;;;;;19.50;46.04;101243.97;4180798;28;20044;-47
2021/12/30 07:18:23;;;;;;;6.60;3.97;;;;;;;19.49;46.43;101256.16;4180071;28;20444;-47
2021/12/30 07:20:24;;;;;;;4.03;3.05;;;;;;;19.42;46.08;101253.59;4180785;28;20079;-50
2021/12/30 07:22:26;;;;;;;6.07;3.45;;;;;;;19.50;46.33;101267.00;4180685;28;20041;-49
2021/12/30 07:24:27;;;;;;;5.18;3.88;;;;;;;19.48;46.22;101262.84;4180878;28;20032;-51
2021/12/30 07:26:31;;;;;;;7.05;3.65;;;;;;;19.48;46.22;101273.94;4180501;28;20045;-54
2021/12/30 07:28:32;;;;;;;7.55;3.72;;;;;;;19.48;46.11;101269.22;4180749;28;20024;-49
2021/12/30 07:30:34;;;;;;;6.10;3.50;;;;;;;19.47;46.24;101275.88;4180079;28;20045;-50
2021/12/30 07:32:35;;;;;;;6.75;3.85;;;;;;;19.48;46.38;101285.03;4180388;28;20107;-51
2021/12/30 07:34:37;;;;;;;4.50;3.78;;;;;;;19.46;46.24;101287.22;4180461;28;20094;-50
2021/12/30 07:36:38;;;;;;;6.72;3.67;;;;;;;19.49;46.25;101284.75;4179736;28;20462;-52
2021/12/30 07:38:40;;;;;;;5.85;4.07;;;;;;;19.49;46.03;101286.69;4180443;28;20037;-48
2021/12/30 07:40:41;;;;;;;5.90;3.70;;;;;;;19.48;46.19;101277.53;4180462;28;20488;-51
2021/12/30 07:42:43;;;;;;;4.18;3.60;;;;;;;19.50;46.35;101277.28;4180213;28;20041;-48
2021/12/30 07:44:47;;;;;;;5.97;3.70;;;;;;;19.47;46.19;101277.78;4178517;28;20075;-48
2021/12/30 07:46:51;;;;;;;6.40;4.10;;;;;;;19.47;46.35;101286.97;4180843;28;20049;-51
2021/12/30 07:48:53;;;;;;;8.02;4.22;;;;;;;19.46;46.47;101288.06;4180290;28;20033;-49
2021/12/30 07:50:54;;;;;;;8.15;3.70;;;;;;;19.47;46.84;101284.19;4180754;28;20045;-50
2021/12/30 07:52:55;;;;;;;8.52;3.83;;;;;;;19.40;46.90;101277.19;4180866;28;20411;-49
2021/12/30 07:54:57;;;;;;;5.30;3.60;;;;;;;19.45;46.58;101285.56;4175316;28;20088;-48
2021/12/30 07:56:58;;;;;;;4.95;3.60;;;;;;;19.45;46.65;101274.44;4179796;28;20461;-49
2021/12/30 07:59:00;;;;;;;3.92;3.53;;;;;;;19.46;46.99;101281.66;4179898;28;20045;-48
2021/12/30 08:01:02;;;;;;;6.75;4.50;;;;;;;19.40;46.70;101260.53;4180638;28;20041;-49
2021/12/30 08:03:03;;;;;;;5.18;3.60;;;;;;;19.44;46.57;101256.13;4179146;28;20083;-49
2021/12/30 08:05:05;;;;;;;4.32;3.10;;;;;;;19.43;46.66;101260.00;4180246;28;20091;-50
2021/12/30 08:07:07;;;;;;;5.82;3.83;;;;;;;19.42;46.83;101264.69;4179986;28;20045;-45
2021/12/30 08:09:08;;;;;;;5.85;4.00;;;;;;;19.44;46.49;101256.97;4179832;28;20049;-50
2021/12/30 08:11:10;;;;;;;5.07;3.97;;;;;;;19.44;46.81;101267.22;4180640;28;20045;-48
2021/12/30 08:13:11;;;;;;;6.80;3.85;;;;;;;19.44;46.98;101267.22;4169794;28;20041;-50
2021/12/30 08:15:13;;;;;;;5.20;3.38;;;;;;;19.43;46.88;101271.13;4164005;28;20091;-49
2021/12/30 08:17:17;;;;;;;5.50;3.80;;;;;;;19.43;47.02;101266.41;4163836;28;20033;-48
2021/12/30 08:19:19;;;;;;;4.88;3.47;;;;;;;19.42;47.20;101252.75;4165731;28;20103;-47
2021/12/30 08:21:20;;;;;;;5.70;4.30;;;;;;;19.43;47.06;101252.53;4163462;28;20049;-48
2021/12/30 08:23:22;;;;;;;4.82;3.50;;;;;;;19.43;47.05;101240.59;4163781;28;20107;-48
2021/12/30 08:25:24;;;;;;;6.53;4.00;;;;;;;19.44;46.90;101228.38;4180438;28;20422;-49
2021/12/30 08:27:25;;;;;;;4.20;3.53;;;;;;;19.44;46.74;101217.28;4180250;28;20679;-53
2021/12/30 08:29:31;;;;;;;5.10;3.40;;;;;;;19.41;46.71;101195.59;4177658;28;20481;-51
2021/12/30 08:31:33;;;;;;;6.00;3.90;;;;;;;19.43;46.88;101201.72;4178510;28;20094;-48
2021/12/30 08:33:35;;;;;;;4.00;3.60;;;;;;;19.45;46.73;101202.28;4180362;28;20481;-48
2021/12/30 08:35:36;;;;;;;5.65;3.85;;;;;;;19.43;46.65;101201.72;4167744;28;20095;-50
2021/12/30 08:37:40;;;;;;;5.65;3.40;;;;;;;19.41;46.68;101195.59;4163799;28;20087;-47
2021/12/30 08:39:43;;;;;;;5.72;3.88;;;;;;;19.42;46.92;101191.69;4163322;28;20442;-49
2021/12/30 08:41:44;;;;;;;4.80;3.67;;;;;;;19.41;46.59;101192.81;4166744;28;20441;-50
2021/12/30 08:43:46;;;;;;;4.07;3.47;;;;;;;19.39;46.88;101195.03;4178360;28;20045;-50
2021/12/30 08:45:48;;;;;;;4.53;3.60;;;;;;;19.40;46.77;101205.03;4180051;28;20033;-50
2021/12/30 08:47:50;;;;;;;7.53;3.75;;;;;;;19.40;46.52;101205.03;4180023;28;20033;-47
2021/12/30 08:49:53;;;;;;;5.70;3.35;;;;;;;19.41;46.88;101206.69;4179845;28;20055;-51
2021/12/30 08:51:55;;;;;;;5.40;3.67;;;;;;;19.38;46.53;101212.75;4173737;28;20096;-50
2021/12/30 08:53:56;;;;;;;4.20;3.63;;;;;;;19.40;46.49;101218.91;4179237;28;20033;-51
2021/12/30 08:55:58;;;;;;;7.55;3.92;;;;;;;19.38;46.46;101216.41;4180339;28;20445;-51
2021/12/30 08:58:00;;;;;;;6.00;3.67;;;;;;;19.39;46.47;101220.84;4180103;28;20441;-50
2021/12/30 09:00:04;;;;;;;4.95;3.63;;;;;;;19.36;46.77;101217.75;4180121;28;20036;-51
2021/12/30 09:02:07;;;;;;;5.28;4.05;;;;;;;19.35;46.92;101207.75;4179902;28;20083;-48
2021/12/30 09:04:08;;;;;;;4.15;3.55;;;;;;;19.36;46.68;101203.88;4179437;28;20037;-49
2021/12/30 09:06:10;;;;;;;8.15;3.47;;;;;;;19.36;46.45;101198.31;4180729;28;20033;-48
2021/12/30 09:08:11;;;;;;;7.57;3.80;;;;;;;19.36;46.51;101203.88;4182782;28;20091;-53
2021/12/30 09:10:15;;;;;;;4.43;3.67;;;;;;;19.33;46.60;101204.38;4182755;28;20438;-46
2021/12/30 09:12:18;;;;;;;5.32;3.60;;;;;;;19.34;46.70;101189.44;4182362;28;20036;-49
2021/12/30 09:14:20;;;;;;;4.85;3.97;;;;;;;19.33;46.88;101193.28;4182386;28;20052;-49
2021/12/30 09:16:21;;;;;;;4.90;3.60;;;;;;;19.33;46.66;101188.56;4182758;28;20037;-47
2021/12/30 09:18:24;;;;;;;5.97;3.80;;;;;;;19.34;46.46;101183.88;4182635;28;20510;-48
2021/12/30 09:20:25;;;;;;;4.80;3.97;;;;;;;19.29;46.46;101171.66;4182523;28;20049;-48
2021/12/30 09:22:29;;;;;;;6.47;3.83;;;;;;;19.32;46.67;101169.44;4182406;28;20037;-51
2021/12/30 09:24:30;;;;;;;4.45;3.33;;;;;;;19.35;46.36;101174.47;4182746;28;20041;-48
2021/12/30 09:26:32;;;;;;;5.53;3.70;;;;;;;19.35;46.49;101168.91;4182166;28;20025;-47
2021/12/30 09:28:33;;;;;;;5.82;4.10;;;;;;;19.30;46.47;101162.22;4182582;28;20071;-53
2021/12/30 09:30:37;;;;;;;4.75;3.70;;;;;;;19.29;46.54;101156.94;4182454;28;20114;-49
2021/12/30 09:32:40;;;;;;;5.55;3.97;;;;;;;19.22;46.64;101147.97;4182877;28;20079;-49
2021/12/30 09:34:44;;;;;;;5.65;3.58;;;;;;;19.25;46.64;101151.06;4182391;28;20049;-47
2021/12/30 09:36:47;;;;;;;8.93;3.97;;;;;;;19.25;46.58;101153.84;4182352;28;20037;-47
2021/12/30 09:38:48;;;;;;;4.45;3.78;;;;;;;19.24;46.45;101162.41;4181262;28;20045;-52